Time;durP1;ratioP1;P1;durP2;ratioP2;P2;SDS_P1;SDS_P2;PMS_P1;PMS_P2;Temp;Humidity;BMP_temperature;BMP_pressure;BME280_temperature;BME280_humidity;BME280_pressure;Samples;Min_cycle;Max_cycle;Signal;HPM_P1;HPM_P2
2020/12/02 18:57:36;;;;;;;8.20;6.53;;;;;;;;;;5111247;27;20372;-63
2020/12/02 19:00:05;;;;;;;9.95;6.88;;;;;;;;;;5110198;28;20039;-58
2020/12/02 19:02:30;;;;;;;8.38;6.47;;;;;;;;;;5102919;28;20056;-58
2020/12/02 19:05:14;;;;;;;8.63;6.70;;;;;;;;;;5090553;28;20098;-56
2020/12/02 19:07:40;;;;;;;8.93;6.72;;;;;;;;;;5086287;28;20737;-56
2020/12/02 19:10:07;;;;;;;8.53;6.60;;;;;;;;;;5092539;28;20112;-56
2020/12/02 19:12:39;;;;;;;9.57;6.55;;;;;;;;;;5104049;28;20435;-56
2020/12/02 19:15:23;;;;;;;9.32;6.57;;;;;;;;;;5090454;28;20035;-55
2020/12/02 19:18:07;;;;;;;9.57;6.35;;;;;;;;;;5090524;28;20036;-57
2020/12/02 19:21:12;;;;;;;8.68;6.15;;;;;;;;;;5090121;28;20025;-56
2020/12/02 19:23:46;;;;;;;7.95;6.07;;;;;;;;;;5108906;28;20505;-55
2020/12/02 19:26:25;;;;;;;7.95;5.88;;;;;;;;;;5109792;28;20027;-59
2020/12/02 19:29:07;;;;;;;10.57;6.15;;;;;;;;;;5109681;28;20032;-58
2020/12/02 19:31:43;;;;;;;8.27;6.40;;;;;;;;;;5107735;28;20398;-57
2020/12/02 19:34:53;;;;;;;8.90;6.28;;;;;;;;;;5073992;28;20570;-58
2020/12/02 19:37:36;;;;;;;8.52;6.18;;;;;;;;;;5026905;28;20072;-55
2020/12/02 19:40:37;;;;;;;7.65;5.80;;;;;;;;;;5098006;28;20040;-57
2020/12/02 19:43:36;;;;;;;8.43;5.90;;;;;;;;;;5114267;28;20047;-57
2020/12/02 19:46:17;;;;;;;7.10;5.22;;;;;;;;;;5119626;28;20020;-53
2020/12/02 19:48:52;;;;;;;8.98;5.55;;;;;;;;;;5100731;28;20556;-58
2020/12/02 19:51:20;;;;;;;10.65;5.30;;;;;;;;;;5102064;28;20028;-56
2020/12/02 19:54:10;;;;;;;7.60;5.22;;;;;;;;;;5098253;28;20020;-58
2020/12/02 19:57:14;;;;;;;7.53;5.25;;;;;;;;;;5101889;28;20027;-58
2020/12/02 19:59:54;;;;;;;8.35;5.80;;;;;;;;;;5060178;28;20046;-57
2020/12/02 20:02:56;;;;;;;7.72;5.28;;;;;;;;;;5099941;28;20036;-58
2020/12/02 20:05:37;;;;;;;8.45;5.60;;;;;;;;;;5088107;28;20016;-57
2020/12/02 20:08:16;;;;;;;7.35;5.40;;;;;;;;;;5072829;28;20434;-55
2020/12/02 20:10:49;;;;;;;8.68;5.43;;;;;;;;;;5058421;28;20031;-57
2020/12/02 20:13:44;;;;;;;6.68;5.15;;;;;;;;;;5074474;28;20031;-57
2020/12/02 20:16:20;;;;;;;9.25;5.72;;;;;;;;;;5074477;28;20059;-59
2020/12/02 20:19:02;;;;;;;7.32;5.43;;;;;;;;;;5074644;28;20033;-57
2020/12/02 20:22:24;;;;;;;6.82;4.88;;;;;;;;;;5075981;28;20483;-56
2020/12/02 20:25:08;;;;;;;8.02;5.40;;;;;;;;;;5013717;28;20045;-60
2020/12/02 20:27:49;;;;;;;8.27;5.40;;;;;;;;;;5014369;28;20026;-60
2020/12/02 20:30:24;;;;;;;8.02;5.20;;;;;;;;;;5056691;28;20514;-56
2020/12/02 20:32:49;;;;;;;8.20;4.93;;;;;;;;;;5075486;28;20020;-58
2020/12/02 20:35:29;;;;;;;8.57;5.50;;;;;;;;;;5075235;28;20044;-59
2020/12/02 20:38:20;;;;;;;6.85;5.15;;;;;;;;;;5075251;28;20036;-59
2020/12/02 20:40:45;;;;;;;9.18;5.57;;;;;;;;;;5034310;28;20044;-60
2020/12/02 20:43:11;;;;;;;8.20;5.47;;;;;;;;;;5075183;28;20024;-60
2020/12/02 20:45:36;;;;;;;7.03;4.83;;;;;;;;;;5075107;28;20074;-64
2020/12/02 20:48:13;;;;;;;9.43;5.23;;;;;;;;;;5075105;28;20056;-62
2020/12/02 20:51:09;;;;;;;7.70;5.53;;;;;;;;;;5073837;28;20078;-60
2020/12/02 20:53:39;;;;;;;8.98;5.57;;;;;;;;;;5074074;28;20070;-61
2020/12/02 20:56:19;;;;;;;9.10;5.05;;;;;;;;;;5073687;28;20024;-60
2020/12/02 21:01:11;;;;;;;8.27;5.63;;;;;;;;;;5094256;27;98884;-62
2020/12/02 21:03:36;;;;;;;7.77;5.03;;;;;;;;;;5111616;27;94539;-62
2020/12/02 21:06:02;;;;;;;7.50;5.13;;;;;;;;;;5111367;28;20459;-61
2020/12/02 21:08:33;;;;;;;8.40;5.37;;;;;;;;;;5108502;28;20036;-62
2020/12/02 21:10:58;;;;;;;10.65;5.80;;;;;;;;;;5090559;28;20428;-62
2020/12/02 21:13:23;;;;;;;8.50;6.07;;;;;;;;;;5090609;28;20056;-61
2020/12/02 21:16:20;;;;;;;9.23;5.27;;;;;;;;;;5090347;28;20509;-59
2020/12/02 21:19:01;;;;;;;12.35;5.20;;;;;;;;;;5092542;28;20111;-62
2020/12/02 21:21:54;;;;;;;8.93;5.45;;;;;;;;;;5090328;28;20031;-62
2020/12/02 21:24:28;;;;;;;7.70;5.25;;;;;;;;;;5089527;28;20078;-61
2020/12/02 21:27:21;;;;;;;9.35;5.10;;;;;;;;;;5089104;28;20016;-62
2020/12/02 21:29:55;;;;;;;8.20;5.20;;;;;;;;;;5075065;28;20043;-62
2020/12/02 21:32:42;;;;;;;7.43;5.00;;;;;;;;;;5073279;28;20032;-61
2020/12/02 21:35:15;;;;;;;12.10;5.45;;;;;;;;;;5089272;28;20028;-62
2020/12/02 21:37:41;;;;;;;7.93;5.28;;;;;;;;;;5117872;28;20036;-64
2020/12/02 21:40:27;;;;;;;7.77;5.20;;;;;;;;;;5090240;28;20082;-62
2020/12/02 21:43:13;;;;;;;9.35;5.10;;;;;;;;;;5106676;28;20028;-62
2020/12/02 21:46:14;;;;;;;8.85;5.32;;;;;;;;;;5089969;28;20111;-62
2020/12/02 21:48:55;;;;;;;7.53;5.00;;;;;;;;;;5099982;28;20025;-61
2020/12/02 21:51:33;;;;;;;7.38;5.28;;;;;;;;;;5109120;28;20031;-62
2020/12/02 21:54:25;;;;;;;9.02;5.40;;;;;;;;;;5107490;28;20054;-61
2020/12/02 21:56:50;;;;;;;7.95;5.18;;;;;;;;;;5108950;28;20069;-62
2020/12/02 21:59:17;;;;;;;7.57;5.20;;;;;;;;;;5109898;28;20028;-62
2020/12/02 22:02:02;;;;;;;8.65;5.22;;;;;;;;;;5109117;28;20028;-62
2020/12/02 22:04:49;;;;;;;7.85;4.90;;;;;;;;;;5092239;28;20043;-60
2020/12/02 22:07:31;;;;;;;8.15;5.10;;;;;;;;;;5089298;28;20111;-60
2020/12/02 22:10:16;;;;;;;7.75;5.28;;;;;;;;;;5105451;28;20020;-62
2020/12/02 22:12:46;;;;;;;8.57;5.03;;;;;;;;;;5091600;28;20030;-62
2020/12/02 22:15:13;;;;;;;7.72;5.30;;;;;;;;;;5058379;28;20032;-62
2020/12/02 22:17:57;;;;;;;8.55;5.50;;;;;;;;;;5058146;28;20029;-59
2020/12/02 22:20:23;;;;;;;7.30;5.30;;;;;;;;;;5074631;28;20027;-60
2020/12/02 22:23:10;;;;;;;9.00;5.38;;;;;;;;;;5091773;28;20032;-60
2020/12/02 22:25:36;;;;;;;7.32;5.13;;;;;;;;;;5075846;28;20028;-60
2020/12/02 22:28:14;;;;;;;8.43;5.50;;;;;;;;;;5074429;28;20108;-58
2020/12/02 22:30:41;;;;;;;8.88;5.82;;;;;;;;;;5084619;28;20491;-59
2020/12/02 22:33:40;;;;;;;7.28;5.20;;;;;;;;;;5086043;28;20115;-58
2020/12/02 22:36:29;;;;;;;10.00;5.30;;;;;;;;;;5074571;28;20040;-58
2020/12/02 22:39:32;;;;;;;8.57;5.47;;;;;;;;;;5079926;23;20403;-56
2020/12/02 22:42:21;;;;;;;8.10;5.60;;;;;;;;;;5015658;28;20041;-55
2020/12/02 22:45:05;;;;;;;8.02;5.65;;;;;;;;;;5015262;28;20149;-56
2020/12/02 22:47:47;;;;;;;10.65;5.90;;;;;;;;;;4999599;28;20495;-53
2020/12/02 22:50:21;;;;;;;8.20;5.47;;;;;;;;;;5015223;28;20029;-56
2020/12/02 22:52:47;;;;;;;12.05;7.68;;;;;;;;;;5008556;28;20038;-55
2020/12/02 22:55:34;;;;;;;12.98;8.55;;;;;;;;;;4995891;28;20034;-56
2020/12/02 22:58:00;;;;;;;12.38;8.27;;;;;;;;;;5009903;28;20505;-55
2020/12/02 23:00:34;;;;;;;13.20;8.10;;;;;;;;;;4995484;28;20039;-55
2020/12/02 23:03:04;;;;;;;11.50;7.68;;;;;;;;;;4995593;28;20097;-54
2020/12/02 23:05:29;;;;;;;12.35;7.18;;;;;;;;;;5001882;28;20118;-56
2020/12/02 23:07:55;;;;;;;11.37;7.07;;;;;;;;;;5002006;28;20022;-56
2020/12/02 23:10:23;;;;;;;13.40;7.60;;;;;;;;;;4979187;28;20054;-55
2020/12/02 23:12:49;;;;;;;10.10;7.10;;;;;;;;;;4995657;28;20428;-57
2020/12/02 23:15:26;;;;;;;11.75;7.13;;;;;;;;;;4977877;28;20393;-55
2020/12/02 23:18:02;;;;;;;;;;;;;;;;;;4979778;28;20034;-56
2020/12/02 23:20:35;;;;;;;9.38;6.80;;;;;;;;;;5005303;28;20009;-56
2020/12/02 23:23:00;;;;;;;10.40;6.50;;;;;;;;;;5013772;28;20129;-56
2020/12/02 23:25:26;;;;;;;9.13;6.47;;;;;;;;;;4997201;28;20104;-55
2020/12/02 23:28:29;;;;;;;9.23;6.50;;;;;;;;;;5014352;28;20488;-56
2020/12/02 23:31:12;;;;;;;8.93;6.40;;;;;;;;;;4999364;28;20030;-55
2020/12/02 23:33:46;;;;;;;8.73;6.30;;;;;;;;;;4995139;28;20452;-57
2020/12/02 23:36:16;;;;;;;9.65;6.18;;;;;;;;;;5011873;28;20033;-57
2020/12/02 23:38:41;;;;;;;9.38;6.35;;;;;;;;;;5014349;28;20451;-57
2020/12/02 23:41:09;;;;;;;7.97;5.80;;;;;;;;;;4996380;28;20030;-59
2020/12/02 23:43:39;;;;;;;8.75;6.30;;;;;;;;;;4977755;28;20022;-58
2020/12/02 23:46:12;;;;;;;9.68;6.47;;;;;;;;;;4977640;28;20032;-56
2020/12/02 23:48:40;;;;;;;8.38;5.97;;;;;;;;;;4977750;28;20077;-56
2020/12/02 23:51:05;;;;;;;8.55;5.82;;;;;;;;;;4993142;28;20029;-56
2020/12/02 23:53:31;;;;;;;11.03;6.20;;;;;;;;;;5015126;28;20378;-54
2020/12/02 23:56:04;;;;;;;9.13;6.07;;;;;;;;;;5014497;28;20553;-54
2020/12/02 23:58:31;;;;;;;9.32;6.28;;;;;;;;;;5014121;28;20034;-55
